Time;durP1;ratioP1;P1;durP2;ratioP2;P2;SDS_P1;SDS_P2;PMS_P1;PMS_P2;Temp;Humidity;BMP_temperature;BMP_pressure;BME280_temperature;BME280_humidity;BME280_pressure;Samples;Min_cycle;Max_cycle;Signal;HPM_P1;HPM_P2
2021/05/23 00:00:34;;;;;;;3.15;0.47;;;11.20;99.90;;;;;;5112763;28;20469;-65
2021/05/23 00:03:04;;;;;;;4.50;0.52;;;11.30;99.90;;;;;;5114259;28;20032;-65
2021/05/23 00:05:30;;;;;;;2.05;0.38;;;11.30;99.90;;;;;;5113400;28;20079;-64
2021/05/23 00:08:04;;;;;;;1.50;0.60;;;11.40;99.90;;;;;;5112016;28;20107;-65
2021/05/23 00:10:32;;;;;;;0.95;0.20;;;11.40;99.90;;;;;;5113441;28;20028;-66
2021/05/23 00:13:00;;;;;;;2.40;0.57;;;11.50;99.90;;;;;;5114171;28;20433;-65
2021/05/23 00:15:41;;;;;;;2.97;0.40;;;11.50;99.90;;;;;;5113029;28;20024;-64
2021/05/23 00:18:08;;;;;;;2.83;0.50;;;11.50;99.90;;;;;;5111755;28;20048;-65
2021/05/23 00:20:35;;;;;;;4.15;0.65;;;11.50;99.90;;;;;;5112702;28;20316;-65
2021/05/23 00:23:01;;;;;;;1.40;0.55;;;11.40;99.90;;;;;;5112077;28;20053;-64
2021/05/23 00:25:27;;;;;;;2.92;0.40;;;11.40;99.90;;;;;;5111096;28;20107;-64
2021/05/23 00:27:52;;;;;;;1.58;0.52;;;11.50;99.90;;;;;;5113471;28;20059;-64
2021/05/23 00:30:19;;;;;;;1.70;0.30;;;11.20;99.90;;;;;;5113026;28;20027;-64
2021/05/23 00:32:45;;;;;;;2.55;1.13;;;11.30;99.90;;;;;;5112876;28;20135;-64
2021/05/23 00:35:12;;;;;;;4.55;0.40;;;11.10;99.90;;;;;;5113304;28;20050;-64
2021/05/23 00:37:38;;;;;;;2.40;0.38;;;11.00;99.90;;;;;;5112858;28;20040;-65
2021/05/23 00:40:05;;;;;;;2.45;1.30;;;10.80;99.90;;;;;;5113540;28;20072;-65
2021/05/23 00:42:31;;;;;;;3.28;0.52;;;10.80;99.90;;;;;;5112747;28;20105;-65
2021/05/23 00:44:57;;;;;;;3.95;0.43;;;10.90;99.90;;;;;;5112941;28;20027;-65
2021/05/23 00:47:22;;;;;;;1.70;0.82;;;10.80;99.90;;;;;;5112883;28;20500;-65
2021/05/23 00:49:48;;;;;;;5.00;0.77;;;10.60;99.90;;;;;;5111926;28;20115;-64
2021/05/23 00:52:14;;;;;;;2.22;0.55;;;10.80;99.90;;;;;;5113347;28;20027;-65
2021/05/23 00:54:39;;;;;;;1.60;0.70;;;10.70;99.90;;;;;;5111284;28;20035;-64
2021/05/23 00:57:06;;;;;;;3.22;1.10;;;10.80;99.90;;;;;;5112513;28;20088;-64
2021/05/23 00:59:32;;;;;;;3.60;0.45;;;10.90;99.90;;;;;;5112523;28;20023;-64
2021/05/23 01:01:58;;;;;;;3.17;0.95;;;10.80;99.90;;;;;;5113150;28;20031;-64
2021/05/23 01:04:24;;;;;;;4.47;0.60;;;10.70;99.90;;;;;;5111477;28;20050;-64
2021/05/23 01:06:51;;;;;;;2.55;0.40;;;10.60;99.90;;;;;;5112932;28;20137;-64
2021/05/23 01:09:17;;;;;;;2.10;0.50;;;10.70;99.90;;;;;;5112976;28;20031;-64
2021/05/23 01:11:42;;;;;;;2.10;0.50;;;10.80;99.90;;;;;;5111920;28;20047;-65
2021/05/23 01:14:46;;;;;;;3.70;0.77;;;10.80;99.90;;;;;;5112539;28;20028;-65
2021/05/23 01:17:13;;;;;;;4.38;0.73;;;10.80;99.90;;;;;;5110923;28;20048;-65
2021/05/23 01:19:51;;;;;;;3.15;0.45;;;10.80;99.90;;;;;;5110854;28;20194;-65
2021/05/23 01:22:30;;;;;;;1.17;0.50;;;10.90;99.90;;;;;;5112678;28;20031;-65
2021/05/23 01:25:17;;;;;;;1.58;0.50;;;10.90;99.90;;;;;;5112479;28;20481;-64
2021/05/23 01:27:48;;;;;;;3.28;0.77;;;11.00;99.90;;;;;;5111906;28;20047;-66
2021/05/23 01:30:16;;;;;;;3.95;0.82;;;11.00;99.90;;;;;;5112564;28;20331;-64
2021/05/23 01:32:45;;;;;;;3.05;0.80;;;10.90;99.90;;;;;;5111696;28;20030;-64
2021/05/23 01:35:21;;;;;;;3.53;0.57;;;10.80;99.90;;;;;;5112282;28;20135;-64
2021/05/23 01:37:51;;;;;;;3.00;0.70;;;10.70;99.90;;;;;;5111645;28;20019;-64
2021/05/23 01:40:19;;;;;;;1.83;0.55;;;10.80;99.90;;;;;;5110748;28;20027;-64
2021/05/23 01:42:46;;;;;;;3.55;0.60;;;10.90;99.90;;;;;;5111651;28;20110;-64
2021/05/23 01:45:12;;;;;;;2.78;0.88;;;10.90;99.90;;;;;;5110471;28;20036;-64
2021/05/23 01:47:38;;;;;;;3.65;0.47;;;10.80;99.90;;;;;;5111824;28;20353;-65
2021/05/23 01:50:04;;;;;;;3.70;0.63;;;10.80;99.90;;;;;;5112491;28;20106;-64
2021/05/23 01:52:30;;;;;;;4.10;0.55;;;10.80;99.90;;;;;;5110130;28;20101;-65
2021/05/23 01:54:56;;;;;;;7.10;0.68;;;10.80;99.90;;;;;;5111760;28;20413;-64
2021/05/23 01:57:21;;;;;;;2.78;0.47;;;10.70;99.90;;;;;;5110553;28;20036;-64
2021/05/23 01:59:47;;;;;;;1.63;0.85;;;10.60;99.90;;;;;;5109864;28;20545;-64
2021/05/23 02:02:12;;;;;;;3.53;0.70;;;10.50;99.90;;;;;;5110382;28;20044;-64
2021/05/23 02:04:38;;;;;;;2.92;0.70;;;10.50;99.90;;;;;;5111148;28;20051;-64
2021/05/23 02:07:04;;;;;;;1.92;0.55;;;10.40;99.90;;;;;;5111941;28;20028;-64
2021/05/23 02:09:30;;;;;;;2.80;0.98;;;10.40;99.90;;;;;;5110483;28;20145;-64
2021/05/23 02:11:56;;;;;;;2.72;0.80;;;10.40;99.90;;;;;;5110489;28;20020;-64
2021/05/23 02:14:22;;;;;;;2.42;0.70;;;10.30;99.90;;;;;;5111577;28;20028;-64
2021/05/23 02:16:51;;;;;;;1.63;0.70;;;10.50;99.90;;;;;;5109139;28;20206;-64
2021/05/23 02:19:17;;;;;;;5.65;0.63;;;10.50;99.90;;;;;;5111301;28;20492;-64
2021/05/23 02:21:42;;;;;;;2.80;0.90;;;10.50;99.90;;;;;;5110860;28;20032;-64
2021/05/23 02:24:08;;;;;;;1.92;1.30;;;10.60;99.90;;;;;;5110195;28;20060;-64
2021/05/23 02:26:34;;;;;;;2.08;0.70;;;10.80;99.90;;;;;;5110885;28;20070;-64
2021/05/23 02:28:59;;;;;;;3.25;0.60;;;10.80;99.90;;;;;;5111064;28;20046;-64
2021/05/23 02:31:25;;;;;;;4.38;0.55;;;10.80;99.90;;;;;;5111658;28;20448;-64
2021/05/23 02:33:51;;;;;;;3.40;0.70;;;10.90;99.90;;;;;;5110486;28;20077;-64
2021/05/23 02:36:16;;;;;;;3.10;0.60;;;10.90;99.90;;;;;;5109791;28;20019;-63
2021/05/23 02:38:42;;;;;;;5.32;1.00;;;10.90;99.90;;;;;;5110631;28;20059;-64
2021/05/23 02:41:08;;;;;;;3.95;0.75;;;11.00;99.90;;;;;;5110994;28;20106;-65
2021/05/23 02:43:33;;;;;;;1.77;0.73;;;10.90;99.90;;;;;;5108760;28;20066;-65
2021/05/23 02:46:03;;;;;;;5.50;0.50;;;11.00;99.90;;;;;;5111161;28;20074;-63
2021/05/23 02:48:29;;;;;;;5.22;1.17;;;10.90;99.90;;;;;;5109430;28;20031;-63
2021/05/23 02:50:54;;;;;;;2.85;0.75;;;11.00;99.90;;;;;;5109028;28;20034;-64
2021/05/23 02:53:20;;;;;;;3.97;1.30;;;11.00;99.90;;;;;;5110880;28;20035;-64
2021/05/23 02:55:47;;;;;;;3.85;0.90;;;11.00;99.90;;;;;;5110437;28;20023;-64
2021/05/23 02:58:14;;;;;;;3.03;0.93;;;11.00;99.90;;;;;;5110977;28;20487;-63
2021/05/23 03:00:41;;;;;;;1.42;0.57;;;11.00;99.90;;;;;;5110274;28;20065;-64
2021/05/23 03:03:09;;;;;;;4.35;0.63;;;11.10;99.90;;;;;;5109297;28;20027;-64
2021/05/23 03:05:35;;;;;;;4.50;0.85;;;11.00;99.90;;;;;;5109958;28;20119;-65
2021/05/23 03:08:01;;;;;;;8.40;0.90;;;11.00;99.90;;;;;;5109461;28;20046;-64
2021/05/23 03:10:41;;;;;;;3.60;1.40;;;11.00;99.90;;;;;;5110801;28;20028;-64
2021/05/23 03:13:09;;;;;;;2.63;0.80;;;10.90;99.90;;;;;;5110923;28;20323;-64
2021/05/23 03:15:36;;;;;;;5.05;0.60;;;10.80;99.90;;;;;;5109940;28;20110;-64
2021/05/23 03:18:02;;;;;;;4.93;0.85;;;10.80;99.90;;;;;;5110097;28;20062;-64
2021/05/23 03:20:28;;;;;;;4.05;0.77;;;10.90;99.90;;;;;;5110214;28;20467;-64
2021/05/23 03:22:56;;;;;;;6.03;0.98;;;10.80;99.90;;;;;;5109775;28;20024;-64
2021/05/23 03:25:23;;;;;;;3.85;0.80;;;10.90;99.90;;;;;;5110541;28;20060;-64
2021/05/23 03:27:49;;;;;;;5.15;0.68;;;10.80;99.90;;;;;;5108498;28;20046;-64
2021/05/23 03:30:19;;;;;;;6.40;0.80;;;10.90;99.90;;;;;;5110613;28;20027;-64
2021/05/23 03:32:44;;;;;;;20.65;1.40;;;10.80;99.90;;;;;;5109945;28;20114;-64
2021/05/23 03:35:10;;;;;;;7.03;0.80;;;10.80;99.90;;;;;;5110455;28;20058;-64
2021/05/23 03:37:37;;;;;;;3.05;0.82;;;10.80;99.90;;;;;;5109721;28;20024;-64
2021/05/23 03:40:08;;;;;;;1.83;0.70;;;10.70;99.90;;;;;;5110517;28;20028;-64
2021/05/23 03:42:34;;;;;;;1.63;0.43;;;10.70;99.90;;;;;;5110176;28;20043;-72
2021/05/23 03:45:00;;;;;;;3.08;0.93;;;10.60;99.90;;;;;;5110448;28;20032;-64
2021/05/23 03:47:25;;;;;;;1.70;0.40;;;10.70;99.90;;;;;;5108887;28;20112;-64
2021/05/23 03:49:51;;;;;;;2.13;0.55;;;10.80;99.90;;;;;;5108306;28;20057;-64
2021/05/23 03:52:17;;;;;;;2.33;1.67;;;10.80;99.90;;;;;;5110247;28;20032;-63
2021/05/23 03:54:42;;;;;;;1.27;0.50;;;10.70;99.90;;;;;;5109377;28;20024;-63
2021/05/23 03:57:08;;;;;;;2.80;0.73;;;10.70;99.90;;;;;;5110365;28;20353;-65
2021/05/23 03:59:34;;;;;;;2.58;0.70;;;10.60;99.90;;;;;;5110374;28;20035;-64
2021/05/23 04:02:00;;;;;;;4.28;0.60;;;10.60;99.90;;;;;;5110258;28;20055;-63
2021/05/23 04:04:44;;;;;;;1.48;0.57;;;10.60;99.90;;;;;;5108700;28;20031;-64
2021/05/23 04:07:10;;;;;;;6.05;0.80;;;10.60;99.90;;;;;;5108885;28;20532;-64
2021/05/23 04:09:35;;;;;;;3.25;0.90;;;10.60;99.90;;;;;;5109855;28;20089;-70
2021/05/23 04:12:01;;;;;;;2.38;0.60;;;10.60;99.90;;;;;;5110093;28;20035;-65
2021/05/23 04:14:27;;;;;;;2.60;0.93;;;10.50;99.90;;;;;;5108819;28;20024;-65
2021/05/23 04:16:52;;;;;;;1.83;0.65;;;10.50;99.90;;;;;;5107724;28;20031;-65
2021/05/23 04:19:18;;;;;;;1.25;0.50;;;10.50;99.90;;;;;;5110192;28;20107;-64
2021/05/23 04:21:43;;;;;;;4.35;1.20;;;10.60;99.90;;;;;;5108218;28;20068;-64
2021/05/23 04:24:09;;;;;;;2.45;0.85;;;10.60;99.90;;;;;;5109766;28;20057;-64
2021/05/23 04:26:35;;;;;;;5.82;1.05;;;10.60;99.90;;;;;;5110125;28;20116;-65
2021/05/23 04:29:00;;;;;;;2.78;1.02;;;10.60;99.90;;;;;;5108153;28;20023;-65
2021/05/23 04:31:26;;;;;;;2.17;0.60;;;10.60;99.90;;;;;;5109793;28;20081;-64
2021/05/23 04:33:51;;;;;;;1.60;0.65;;;10.60;99.90;;;;;;5111029;28;20065;-64
2021/05/23 04:36:17;;;;;;;2.42;0.60;;;10.70;99.90;;;;;;5112176;28;20035;-64
2021/05/23 04:38:43;;;;;;;3.90;0.73;;;10.60;99.90;;;;;;5113053;28;20101;-64
2021/05/23 04:41:11;;;;;;;1.75;0.60;;;10.70;99.90;;;;;;5113732;28;20102;-64
2021/05/23 04:43:37;;;;;;;2.58;0.52;;;10.70;99.90;;;;;;5113437;28;20034;-64
2021/05/23 04:46:02;;;;;;;4.82;0.77;;;10.70;99.90;;;;;;5113444;28;20380;-66
2021/05/23 04:48:28;;;;;;;1.85;0.45;;;10.80;99.90;;;;;;5112119;28;20059;-64
2021/05/23 04:50:53;;;;;;;4.38;0.70;;;10.80;99.90;;;;;;5112599;28;20050;-64
2021/05/23 04:53:19;;;;;;;2.05;0.52;;;10.80;99.90;;;;;;5113056;28;20031;-64
2021/05/23 04:55:45;;;;;;;2.30;0.40;;;10.80;99.90;;;;;;5112833;28;20050;-64
2021/05/23 04:58:10;;;;;;;4.18;0.82;;;10.80;99.90;;;;;;5113195;28;20457;-65
2021/05/23 05:00:36;;;;;;;4.80;0.63;;;10.90;99.90;;;;;;5111992;28;20024;-65
2021/05/23 05:03:01;;;;;;;0.90;0.38;;;10.90;99.90;;;;;;5112825;28;20023;-65
2021/05/23 05:05:27;;;;;;;3.72;0.88;;;10.90;99.90;;;;;;5112921;28;20031;-65
2021/05/23 05:07:53;;;;;;;2.42;0.77;;;10.90;99.90;;;;;;5112325;28;20019;-65
2021/05/23 05:10:18;;;;;;;5.53;0.73;;;11.00;99.90;;;;;;5111398;28;20028;-65
2021/05/23 05:12:44;;;;;;;3.03;0.60;;;11.10;99.90;;;;;;5111019;28;20027;-65
2021/05/23 05:15:10;;;;;;;2.63;0.52;;;11.10;99.90;;;;;;5112995;28;20126;-66
2021/05/23 05:17:36;;;;;;;4.13;0.98;;;11.20;99.90;;;;;;5112716;28;20108;-65
2021/05/23 05:20:04;;;;;;;1.08;0.55;;;11.20;99.90;;;;;;5111960;28;20032;-65
2021/05/23 05:22:30;;;;;;;1.10;0.32;;;11.10;99.90;;;;;;5111281;28;20043;-65
2021/05/23 05:24:55;;;;;;;4.68;0.60;;;11.00;99.90;;;;;;5110729;28;20112;-65
2021/05/23 05:27:24;;;;;;;4.15;1.00;;;10.90;99.90;;;;;;5111298;28;20027;-67
2021/05/23 05:29:49;;;;;;;1.30;0.77;;;10.90;99.90;;;;;;5111814;28;20103;-66
2021/05/23 05:32:15;;;;;;;1.55;0.50;;;10.90;99.90;;;;;;5112229;28;20358;-65
2021/05/23 05:34:41;;;;;;;3.22;0.90;;;10.90;99.90;;;;;;5111788;28;20035;-70
2021/05/23 05:37:06;;;;;;;3.88;0.80;;;11.00;99.90;;;;;;5111078;28;20554;-65
2021/05/23 05:39:32;;;;;;;1.60;0.73;;;11.00;99.90;;;;;;5112641;28;20376;-65
2021/05/23 05:41:58;;;;;;;1.60;0.40;;;11.10;99.90;;;;;;5110440;28;20030;-65
2021/05/23 05:44:24;;;;;;;2.90;0.70;;;11.10;99.90;;;;;;5112236;28;20104;-66
2021/05/23 05:46:51;;;;;;;3.38;0.60;;;11.10;99.90;;;;;;5111779;28;20046;-64
2021/05/23 05:49:17;;;;;;;2.55;0.65;;;11.20;99.90;;;;;;5112371;28;20031;-64
2021/05/23 05:51:42;;;;;;;2.45;0.45;;;11.10;99.90;;;;;;5111808;28;20111;-65
2021/05/23 05:54:08;;;;;;;2.60;0.50;;;11.10;99.90;;;;;;5112022;28;20031;-64
2021/05/23 05:56:34;;;;;;;2.55;0.80;;;11.20;99.90;;;;;;5111797;28;20389;-64
2021/05/23 05:59:00;;;;;;;1.30;0.43;;;11.30;99.90;;;;;;5111588;28;20035;-65
2021/05/23 06:01:25;;;;;;;2.33;0.70;;;11.30;99.90;;;;;;5110359;28;20058;-65
2021/05/23 06:03:51;;;;;;;4.25;1.38;;;11.40;99.90;;;;;;5111001;28;20031;-65
2021/05/23 06:06:16;;;;;;;1.33;0.68;;;11.50;99.90;;;;;;5112191;28;20074;-65
2021/05/23 06:08:42;;;;;;;3.03;0.80;;;11.50;99.90;;;;;;5111412;28;20177;-78
2021/05/23 06:11:08;;;;;;;3.33;0.73;;;11.50;99.90;;;;;;5111933;28;20031;-64
2021/05/23 06:13:33;;;;;;;1.60;0.65;;;11.60;99.90;;;;;;5110359;28;20071;-64
2021/05/23 06:15:59;;;;;;;1.85;0.57;;;11.60;99.90;;;;;;5109575;28;20494;-64
2021/05/23 06:18:26;;;;;;;1.15;0.60;;;11.70;99.90;;;;;;5111436;28;20043;-65
2021/05/23 06:20:53;;;;;;;3.42;0.50;;;11.70;99.90;;;;;;5110877;28;20027;-65
2021/05/23 06:23:19;;;;;;;1.60;0.50;;;11.80;99.90;;;;;;5111303;28;20053;-64
2021/05/23 06:25:45;;;;;;;5.13;0.80;;;11.70;99.90;;;;;;5111090;28;20047;-64
2021/05/23 06:28:11;;;;;;;3.42;1.60;;;11.90;99.90;;;;;;5109735;28;20024;-64
2021/05/23 06:30:36;;;;;;;3.28;0.98;;;11.80;99.90;;;;;;5111199;28;20023;-66
2021/05/23 06:33:02;;;;;;;4.03;0.73;;;11.80;99.90;;;;;;5110775;28;20028;-64
2021/05/23 06:35:28;;;;;;;1.70;1.00;;;11.60;99.90;;;;;;5111057;28;20423;-66
2021/05/23 06:37:54;;;;;;;2.53;1.15;;;11.60;99.90;;;;;;5109978;28;20027;-64
2021/05/23 06:40:21;;;;;;;2.05;0.60;;;11.60;99.90;;;;;;5109742;28;20463;-65
2021/05/23 06:42:47;;;;;;;3.13;1.00;;;11.80;99.90;;;;;;5110085;28;20473;-65
2021/05/23 06:45:12;;;;;;;4.88;1.02;;;11.80;99.90;;;;;;5110766;28;20099;-65
2021/05/23 06:47:38;;;;;;;4.75;0.60;;;12.00;99.90;;;;;;5111134;28;20353;-64
2021/05/23 06:50:05;;;;;;;4.78;1.10;;;12.10;99.90;;;;;;5108787;28;20240;-64
2021/05/23 06:52:31;;;;;;;3.53;1.00;;;12.10;99.90;;;;;;5110501;28;20055;-64
2021/05/23 06:54:56;;;;;;;3.38;0.60;;;12.40;99.90;;;;;;5109508;28;20482;-65
2021/05/23 06:57:22;;;;;;;2.50;0.60;;;12.40;99.90;;;;;;5109451;28;20042;-65
2021/05/23 06:59:48;;;;;;;2.05;1.10;;;12.40;99.90;;;;;;5108857;28;20112;-66
2021/05/23 07:02:14;;;;;;;2.15;0.80;;;12.50;99.90;;;;;;5109414;28;20358;-65
2021/05/23 07:04:39;;;;;;;3.47;0.57;;;12.60;99.90;;;;;;5110714;28;20361;-63
2021/05/23 07:07:05;;;;;;;2.65;0.50;;;12.50;99.90;;;;;;5110157;28;20217;-63
2021/05/23 07:09:30;;;;;;;3.05;0.40;;;12.60;99.90;;;;;;5109377;28;20110;-65
2021/05/23 07:11:57;;;;;;;2.03;0.50;;;12.60;99.90;;;;;;5108923;28;20027;-65
2021/05/23 07:14:22;;;;;;;1.83;0.60;;;12.60;99.90;;;;;;5110692;28;20139;-65
2021/05/23 07:16:48;;;;;;;2.58;0.80;;;12.80;99.90;;;;;;5109700;28;20131;-66
2021/05/23 07:19:14;;;;;;;2.42;0.77;;;12.90;99.90;;;;;;5111033;28;20425;-64
2021/05/23 07:21:39;;;;;;;1.88;0.50;;;13.00;99.90;;;;;;5109273;28;20322;-64
2021/05/23 07:24:05;;;;;;;2.92;1.05;;;12.80;99.90;;;;;;5110075;28;20479;-64
2021/05/23 07:26:31;;;;;;;7.35;1.20;;;12.80;99.90;;;;;;5110765;28;20042;-65
2021/05/23 07:28:56;;;;;;;3.85;1.00;;;13.10;99.90;;;;;;5109691;28;20453;-66
2021/05/23 07:31:22;;;;;;;1.90;0.85;;;13.30;99.90;;;;;;5108834;28;20088;-65
2021/05/23 07:33:48;;;;;;;1.13;0.52;;;13.40;99.90;;;;;;5109617;28;20032;-68
2021/05/23 07:36:13;;;;;;;2.05;0.40;;;13.30;99.90;;;;;;5110306;28;20027;-64
2021/05/23 07:38:40;;;;;;;3.00;0.47;;;13.30;99.90;;;;;;5108719;28;20094;-65
2021/05/23 07:41:06;;;;;;;0.98;0.40;;;13.40;99.90;;;;;;5107784;28;20027;-65
2021/05/23 07:43:32;;;;;;;3.25;0.47;;;13.50;99.90;;;;;;5110033;28;20057;-64
2021/05/23 07:45:57;;;;;;;1.38;0.80;;;13.80;99.90;;;;;;5109582;28;20461;-64
2021/05/23 07:48:24;;;;;;;0.88;0.40;;;13.80;99.90;;;;;;5109693;28;20103;-66
2021/05/23 07:50:50;;;;;;;1.08;0.30;;;14.10;99.90;;;;;;5108078;28;20027;-66
2021/05/23 07:53:16;;;;;;;1.75;0.45;;;14.00;99.90;;;;;;5110140;28;20068;-66
2021/05/23 07:55:42;;;;;;;3.15;0.40;;;13.70;99.90;;;;;;5108802;28;20026;-65
2021/05/23 07:58:08;;;;;;;1.60;0.45;;;14.00;99.90;;;;;;5109416;28;20410;-65
2021/05/23 08:00:34;;;;;;;2.58;0.32;;;14.10;98.60;;;;;;5109869;28;20051;-64
2021/05/23 08:03:00;;;;;;;2.90;0.60;;;14.30;98.00;;;;;;5107983;28;20085;-65
2021/05/23 08:05:27;;;;;;;2.08;0.40;;;14.10;97.70;;;;;;5109824;28;20084;-65
2021/05/23 08:07:53;;;;;;;2.40;0.45;;;14.20;97.60;;;;;;5109687;28;20036;-66
2021/05/23 08:10:19;;;;;;;2.97;0.40;;;14.30;97.30;;;;;;5113782;28;20044;-67
2021/05/23 08:12:45;;;;;;;1.85;0.43;;;14.80;96.70;;;;;;5112136;28;20110;-66
2021/05/23 08:15:12;;;;;;;3.00;0.30;;;15.00;95.80;;;;;;5113347;28;20076;-66
2021/05/23 08:17:39;;;;;;;1.52;0.20;;;15.20;96.70;;;;;;5112133;28;20047;-66
2021/05/23 08:20:05;;;;;;;3.20;0.40;;;15.70;99.90;;;;;;5113227;28;20024;-66
2021/05/23 08:22:31;;;;;;;0.95;0.20;;;15.50;99.90;;;;;;5112362;28;20413;-67
2021/05/23 08:24:57;;;;;;;1.55;0.38;;;15.60;99.90;;;;;;5112814;28;20024;-65
2021/05/23 08:27:22;;;;;;;0.75;0.35;;;15.80;99.90;;;;;;5113933;28;20081;-68
2021/05/23 08:29:48;;;;;;;1.77;0.32;;;15.60;99.90;;;;;;5113367;28;20023;-67
2021/05/23 08:32:14;;;;;;;1.58;0.80;;;15.60;99.90;;;;;;5112804;28;20098;-68
2021/05/23 08:34:39;;;;;;;7.25;3.00;;;15.70;99.90;;;;;;5113422;28;20028;-65
2021/05/23 08:37:05;;;;;;;7.40;3.38;;;15.80;99.90;;;;;;5112984;28;20073;-66
2021/05/23 08:39:31;;;;;;;2.65;0.95;;;15.60;99.90;;;;;;5113485;28;20106;-67
2021/05/23 08:41:57;;;;;;;7.22;1.42;;;15.80;99.90;;;;;;5111674;28;20031;-67
2021/05/23 08:44:23;;;;;;;2.45;0.70;;;16.20;93.50;;;;;;5112042;28;20027;-67
2021/05/23 08:46:53;;;;;;;9.15;1.55;;;15.90;96.50;;;;;;5111969;28;20441;-63
2021/05/23 08:49:21;;;;;;;3.60;0.43;;;16.00;99.20;;;;;;5113781;28;20036;-62
2021/05/23 08:51:48;;;;;;;3.90;0.47;;;15.60;96.50;;;;;;5111732;28;20119;-63
2021/05/23 08:54:14;;;;;;;2.33;0.52;;;15.90;96.80;;;;;;5111745;28;20236;-68
2021/05/23 08:56:41;;;;;;;2.33;0.40;;;16.30;95.70;;;;;;5112119;28;20071;-66
2021/05/23 08:59:08;;;;;;;3.78;0.50;;;16.40;94.60;;;;;;5111911;28;20028;-66
2021/05/23 09:01:34;;;;;;;5.20;0.77;;;16.60;94.30;;;;;;5110995;28;20057;-66
2021/05/23 09:04:02;;;;;;;1.55;0.30;;;16.80;91.50;;;;;;5108459;28;20028;-66
2021/05/23 09:06:30;;;;;;;2.70;0.57;;;16.60;93.50;;;;;;5111042;28;20128;-66
2021/05/23 09:09:01;;;;;;;1.77;0.82;;;16.60;93.40;;;;;;5110675;28;20384;-68
2021/05/23 09:11:27;;;;;;;5.00;0.87;;;16.70;93.10;;;;;;5099663;28;20439;-68
2021/05/23 09:13:54;;;;;;;1.35;0.40;;;16.50;93.00;;;;;;5089961;28;20039;-74
2021/05/23 09:16:20;;;;;;;0.90;0.20;;;16.20;93.80;;;;;;5089853;28;20441;-67
2021/05/23 09:18:49;;;;;;;4.25;0.28;;;16.50;93.30;;;;;;5103562;28;20055;-66
2021/05/23 09:21:17;;;;;;;2.17;0.50;;;16.70;93.20;;;;;;5109493;28;20106;-67
2021/05/23 09:23:58;;;;;;;4.45;0.50;;;17.20;94.70;;;;;;5110733;28;20042;-67
2021/05/23 09:26:39;;;;;;;1.98;0.40;;;17.20;92.90;;;;;;5109875;28;20031;-66
2021/05/23 09:29:07;;;;;;;1.27;0.22;;;16.30;92.90;;;;;;5108140;28;20037;-67
2021/05/23 09:31:32;;;;;;;1.75;0.38;;;15.60;93.90;;;;;;5098002;28;20024;-67
2021/05/23 09:33:58;;;;;;;1.58;0.35;;;15.70;94.30;;;;;;5089335;28;20080;-68
2021/05/23 09:36:25;;;;;;;0.88;0.25;;;15.70;94.20;;;;;;5091669;28;20024;-66
2021/05/23 09:38:59;;;;;;;0.98;0.40;;;15.70;94.30;;;;;;5091299;28;20086;-68
2021/05/23 09:41:27;;;;;;;2.83;0.40;;;16.00;94.40;;;;;;5089901;28;20027;-65
2021/05/23 09:44:32;;;;;;;2.78;0.55;;;16.20;94.00;;;;;;5091496;28;20040;-64
2021/05/23 09:47:04;;;;;;;2.13;0.60;;;16.30;94.10;;;;;;5053550;28;20052;-68
2021/05/23 09:49:43;;;;;;;3.58;0.95;;;16.20;93.10;;;;;;5067041;28;20036;-67
2021/05/23 09:52:14;;;;;;;0.85;0.32;;;16.40;92.60;;;;;;5046078;28;20041;-68
2021/05/23 09:54:53;;;;;;;4.37;0.50;;;16.00;92.50;;;;;;5040309;28;20029;-62
2021/05/23 09:57:22;;;;;;;2.03;0.55;;;15.80;92.90;;;;;;5041950;28;20370;-62
2021/05/23 09:59:59;;;;;;;2.90;0.57;;;15.80;93.00;;;;;;5047473;28;20033;-62
2021/05/23 10:02:25;;;;;;;1.98;0.50;;;15.60;93.10;;;;;;5047725;28;20033;-68
2021/05/23 10:04:50;;;;;;;7.78;0.82;;;15.50;93.30;;;;;;5038110;28;20178;-69
2021/05/23 10:07:16;;;;;;;2.05;0.73;;;15.50;93.40;;;;;;5053743;28;20155;-67
2021/05/23 10:09:42;;;;;;;2.75;0.90;;;15.90;93.50;;;;;;5062324;28;20111;-68
2021/05/23 10:12:11;;;;;;;1.67;0.40;;;16.50;92.50;;;;;;5047563;28;20061;-69
2021/05/23 10:14:38;;;;;;;5.65;0.40;;;16.80;92.40;;;;;;5047474;28;20078;-67
2021/05/23 10:17:07;;;;;;;2.33;0.65;;;16.60;91.80;;;;;;5056789;28;20131;-67
2021/05/23 10:19:34;;;;;;;1.88;0.30;;;16.60;92.60;;;;;;5090766;28;20032;-72
2021/05/23 10:22:03;;;;;;;1.35;0.47;;;16.50;92.00;;;;;;5108522;28;20045;-68
2021/05/23 10:24:51;;;;;;;3.30;0.40;;;16.40;92.00;;;;;;5106958;28;20035;-69
2021/05/23 10:27:22;;;;;;;2.83;0.85;;;16.30;92.30;;;;;;5105000;28;20075;-68
2021/05/23 10:29:56;;;;;;;1.60;0.50;;;16.20;92.20;;;;;;5106570;28;20514;-69
2021/05/23 10:32:27;;;;;;;1.55;0.40;;;15.90;92.40;;;;;;5107754;28;20023;-66
2021/05/23 10:34:54;;;;;;;8.30;1.90;;;15.60;96.10;;;;;;5109857;28;20078;-66
2021/05/23 10:37:26;;;;;;;1.30;0.40;;;16.20;96.00;;;;;;5108734;28;20272;-67
2021/05/23 10:39:53;;;;;;;4.53;1.10;;;16.20;95.80;;;;;;5109538;28;20108;-66
2021/05/23 10:42:20;;;;;;;1.00;0.30;;;16.40;95.90;;;;;;5099294;28;20042;-70
2021/05/23 10:44:49;;;;;;;2.63;0.60;;;16.60;95.10;;;;;;5108192;28;20059;-67
2021/05/23 10:47:23;;;;;;;2.33;0.40;;;16.60;94.50;;;;;;5108552;28;20043;-67
2021/05/23 10:50:08;;;;;;;1.23;0.38;;;16.70;94.60;;;;;;5107319;28;20250;-66
2021/05/23 10:52:37;;;;;;;4.07;0.47;;;16.70;94.30;;;;;;5108904;28;20080;-66
2021/05/23 10:55:12;;;;;;;3.88;0.40;;;16.30;94.10;;;;;;5108251;28;20111;-67
2021/05/23 10:57:48;;;;;;;1.80;0.80;;;16.20;94.80;;;;;;5108711;28;20023;-65
2021/05/23 11:00:36;;;;;;;3.00;0.68;;;16.10;94.70;;;;;;5107105;28;20027;-66
2021/05/23 11:03:14;;;;;;;0.82;0.45;;;15.70;96.60;;;;;;5106873;28;20028;-66
2021/05/23 11:05:40;;;;;;;2.00;0.70;;;16.60;96.90;;;;;;5109426;28;20090;-66
2021/05/23 11:08:07;;;;;;;2.58;0.57;;;17.30;96.10;;;;;;5096007;28;20430;-66
2021/05/23 11:10:48;;;;;;;1.10;0.70;;;17.40;92.10;;;;;;5093988;28;20110;-67
2021/05/23 11:13:16;;;;;;;3.90;0.93;;;16.80;92.10;;;;;;5097476;28;20035;-68
2021/05/23 11:15:46;;;;;;;2.05;0.63;;;16.60;93.10;;;;;;5104488;28;20516;-66
2021/05/23 11:18:24;;;;;;;0.63;0.10;;;15.60;94.30;;;;;;5109341;28;20051;-66
2021/05/23 11:21:09;;;;;;;1.92;0.20;;;14.80;95.00;;;;;;5094307;28;20075;-67
2021/05/23 11:23:47;;;;;;;3.60;0.40;;;14.60;97.80;;;;;;5099321;28;20047;-71
2021/05/23 11:26:15;;;;;;;0.95;0.35;;;14.60;99.00;;;;;;5107322;28;20131;-69
2021/05/23 11:28:48;;;;;;;0.52;0.30;;;15.20;99.90;;;;;;5108151;28;20068;-68
2021/05/23 11:31:20;;;;;;;1.08;0.50;;;15.70;99.40;;;;;;5109299;28;20131;-67
2021/05/23 11:33:49;;;;;;;1.20;0.60;;;16.10;98.10;;;;;;5110343;28;20103;-67
2021/05/23 11:36:22;;;;;;;2.35;0.70;;;16.80;96.80;;;;;;5098752;28;20452;-68
2021/05/23 11:38:48;;;;;;;1.42;0.50;;;16.70;94.80;;;;;;5107592;28;20052;-67
2021/05/23 11:41:25;;;;;;;0.90;0.60;;;16.60;95.60;;;;;;5106232;28;20411;-68
2021/05/23 11:43:58;;;;;;;1.23;0.40;;;16.90;94.70;;;;;;5111710;28;20152;-68
2021/05/23 11:46:26;;;;;;;1.85;0.80;;;16.30;93.80;;;;;;5114258;28;20114;-67
2021/05/23 11:48:53;;;;;;;0.85;0.55;;;16.00;94.90;;;;;;5113481;28;20062;-68
2021/05/23 11:51:31;;;;;;;3.17;0.65;;;15.70;95.50;;;;;;5094954;28;20088;-68
2021/05/23 11:54:02;;;;;;;7.60;1.70;;;15.50;96.20;;;;;;5098368;28;20174;-66
2021/05/23 11:56:30;;;;;;;1.95;0.75;;;15.50;96.70;;;;;;5104797;28;20075;-69
2021/05/23 11:58:57;;;;;;;2.00;0.60;;;15.50;97.00;;;;;;5091723;28;20055;-67
2021/05/23 12:01:39;;;;;;;3.17;0.55;;;15.40;96.60;;;;;;5090846;28;20027;-67
2021/05/23 12:04:13;;;;;;;1.17;0.30;;;15.40;95.90;;;;;;5090619;28;20484;-65
2021/05/23 12:06:43;;;;;;;1.20;0.45;;;15.40;95.60;;;;;;5091935;28;20115;-68
2021/05/23 12:09:17;;;;;;;1.35;0.40;;;15.50;96.70;;;;;;5105969;28;20463;-67
2021/05/23 12:11:49;;;;;;;1.63;0.40;;;16.00;95.20;;;;;;5112089;28;20028;-67
2021/05/23 12:14:25;;;;;;;0.50;0.20;;;16.20;94.30;;;;;;5112669;28;20025;-67
2021/05/23 12:16:59;;;;;;;2.85;0.68;;;16.60;93.90;;;;;;5111271;28;20039;-67
2021/05/23 12:19:53;;;;;;;2.08;0.52;;;16.90;92.60;;;;;;5112597;28;20088;-67
2021/05/23 12:22:27;;;;;;;2.13;0.45;;;17.20;91.70;;;;;;5109454;28;20156;-67
2021/05/23 12:25:09;;;;;;;0.85;0.28;;;17.30;92.00;;;;;;5111076;28;20031;-68
2021/05/23 12:27:42;;;;;;;2.67;0.43;;;17.60;93.00;;;;;;5111565;28;20028;-67
2021/05/23 12:30:08;;;;;;;1.52;0.30;;;17.60;94.70;;;;;;5111570;28;20027;-69
2021/05/23 12:32:41;;;;;;;2.53;0.22;;;18.30;90.10;;;;;;5110716;28;20034;-67
2021/05/23 12:35:12;;;;;;;1.55;0.20;;;18.60;87.70;;;;;;5111665;28;20491;-68
2021/05/23 12:37:40;;;;;;;0.98;0.30;;;18.60;83.40;;;;;;5110598;28;20031;-68
2021/05/23 12:40:21;;;;;;;1.75;0.35;;;18.70;83.80;;;;;;5111572;28;20418;-66
2021/05/23 12:42:47;;;;;;;2.65;0.20;;;18.20;84.30;;;;;;5109604;28;20024;-67
2021/05/23 12:45:13;;;;;;;2.72;0.60;;;18.20;85.40;;;;;;5109713;28;20085;-67
2021/05/23 12:47:54;;;;;;;3.47;0.40;;;18.20;85.70;;;;;;5108401;28;20051;-69
2021/05/23 12:50:35;;;;;;;1.70;0.30;;;17.70;86.10;;;;;;5109448;28;20028;-67
2021/05/23 12:53:01;;;;;;;;;;;17.20;87.30;;;;;;5109623;28;20447;-70